Time;durP1;ratioP1;P1;durP2;ratioP2;P2;SDS_P1;SDS_P2;PMS_P1;PMS_P2;Temp;Humidity;BMP_temperature;BMP_pressure;BME280_temperature;BME280_humidity;BME280_pressure;Samples;Min_cycle;Max_cycle;Signal;HPM_P1;HPM_P2
2023/03/01 00:01:05;;;;;;;17.50;7.03;;;;;;;-2.00;75.01;102938.97;5031407;28;20059;-76
2023/03/01 00:03:31;;;;;;;23.27;7.35;;;;;;;-2.04;75.55;102940.66;5014427;28;20424;-76
2023/03/01 00:05:57;;;;;;;19.25;6.93;;;;;;;-2.06;75.75;102934.50;5012773;28;20072;-76
2023/03/01 00:08:22;;;;;;;19.90;6.88;;;;;;;-2.05;75.53;102932.72;5015256;28;20209;-76
2023/03/01 00:10:47;;;;;;;21.20;7.25;;;;;;;-2.05;75.88;102938.00;5031615;28;20068;-76
2023/03/01 00:13:13;;;;;;;22.20;8.00;;;;;;;-2.02;75.67;102941.56;5032759;28;20025;-76
2023/03/01 00:15:40;;;;;;;21.13;7.03;;;;;;;-2.01;75.94;102937.19;5031697;28;20429;-76
2023/03/01 00:18:05;;;;;;;18.02;6.68;;;;;;;-2.03;75.76;102936.28;5014969;28;20068;-76
2023/03/01 00:20:30;;;;;;;23.13;7.82;;;;;;;-2.00;75.96;102944.22;5030767;28;20057;-76
2023/03/01 00:22:55;;;;;;;22.38;7.40;;;;;;;-2.02;75.59;102944.22;5014382;28;20032;-76
2023/03/01 00:25:21;;;;;;;20.85;6.90;;;;;;;-2.04;76.20;102931.88;5032375;28;20496;-76
2023/03/01 00:27:48;;;;;;;20.60;7.88;;;;;;;-2.04;76.59;102937.16;5032096;28;20033;-76
2023/03/01 00:30:14;;;;;;;19.85;7.13;;;;;;;-2.06;76.15;102925.72;5031447;28;20029;-76
2023/03/01 00:32:39;;;;;;;22.30;7.60;;;;;;;-2.06;75.79;102934.50;5031668;28;20365;-76
2023/03/01 00:35:05;;;;;;;22.55;8.35;;;;;;;-2.03;76.20;102934.53;5014061;28;20480;-76
2023/03/01 00:37:31;;;;;;;21.38;6.95;;;;;;;-2.01;76.21;102934.53;5028150;28;20049;-76
2023/03/01 00:39:56;;;;;;;19.10;7.10;;;;;;;-2.02;75.54;102932.75;5031740;28;20021;-76
2023/03/01 00:42:22;;;;;;;19.52;7.30;;;;;;;-1.99;75.60;102935.44;5029620;28;20021;-76
2023/03/01 00:44:47;;;;;;;20.02;7.82;;;;;;;-1.96;75.65;102932.88;5031927;28;20102;-76
2023/03/01 00:47:13;;;;;;;19.77;6.95;;;;;;;-1.92;75.23;102937.28;5031738;28;20535;-76
2023/03/01 00:49:39;;;;;;;20.88;7.47;;;;;;;-1.87;75.01;102934.72;5014064;28;20013;-76
2023/03/01 00:52:04;;;;;;;20.15;7.13;;;;;;;-1.89;75.40;102937.31;5029693;28;20047;-76
2023/03/01 00:54:30;;;;;;;20.70;7.38;;;;;;;-1.87;75.07;102929.47;5028273;28;20029;-76
2023/03/01 00:56:55;;;;;;;21.40;7.93;;;;;;;-1.83;74.91;102920.69;5029682;28;20845;-76
2023/03/01 00:59:20;;;;;;;21.88;7.75;;;;;;;-1.83;74.71;102926.88;5031090;28;20075;-76
2023/03/01 01:01:46;;;;;;;20.33;7.78;;;;;;;-1.89;75.34;102924.13;5012664;28;20311;-76
2023/03/01 01:04:12;;;;;;;19.23;7.15;;;;;;;-1.98;75.09;102914.41;5029586;28;20017;-76
2023/03/01 01:06:43;;;;;;;21.67;8.40;;;;;;;-2.07;75.30;102914.25;5030776;28;20486;-76
2023/03/01 01:09:16;;;;;;;18.88;6.88;;;;;;;-2.16;75.69;102904.50;5031216;28;20045;-76
2023/03/01 01:11:49;;;;;;;20.45;7.80;;;;;;;-2.21;76.02;102903.56;5030002;28;20579;-76
2023/03/01 01:14:15;;;;;;;22.40;8.63;;;;;;;-2.25;76.33;102908.78;5013840;28;20505;-76
2023/03/01 01:16:41;;;;;;;19.25;7.00;;;;;;;-2.30;76.54;102908.69;5005736;28;20132;-76
2023/03/01 01:19:06;;;;;;;20.48;6.65;;;;;;;-2.33;76.85;102906.03;5031318;28;20120;-76
2023/03/01 01:21:32;;;;;;;22.95;7.53;;;;;;;-2.34;76.94;102896.38;5006151;28;20048;-76
2023/03/01 01:23:58;;;;;;;21.70;8.00;;;;;;;-2.33;77.09;102908.66;5029032;28;20409;-76
2023/03/01 01:26:27;;;;;;;22.05;7.97;;;;;;;-2.31;76.82;102901.69;5031002;28;20082;-76
2023/03/01 01:28:53;;;;;;;22.13;8.67;;;;;;;-2.34;76.54;102891.97;5012599;28;20394;-76
2023/03/01 01:31:19;;;;;;;21.42;7.50;;;;;;;-2.38;76.99;102884.91;5029726;28;20351;-76
2023/03/01 01:33:45;;;;;;;21.33;7.78;;;;;;;-2.41;77.11;102878.72;5013387;28;20053;-76
2023/03/01 01:36:11;;;;;;;20.88;7.63;;;;;;;-2.45;77.34;102875.16;5010669;28;20495;-76
2023/03/01 01:38:37;;;;;;;19.95;6.93;;;;;;;-2.51;77.48;102868.03;5031270;28;20484;-76
2023/03/01 01:41:04;;;;;;;23.30;8.00;;;;;;;-2.54;77.51;102868.00;5030985;28;20037;-76
2023/03/01 01:43:40;;;;;;;20.00;7.80;;;;;;;-2.53;78.16;102866.28;5013558;28;20032;-75
2023/03/01 01:46:33;;;;;;;21.67;7.88;;;;;;;-2.46;77.93;102860.19;5030112;28;20037;-76
2023/03/01 01:49:05;;;;;;;21.15;8.25;;;;;;;-2.49;77.74;102861.06;5008725;28;20034;-76
2023/03/01 01:51:38;;;;;;;20.85;7.43;;;;;;;-2.52;77.54;102855.75;5030277;28;20034;-76
2023/03/01 01:54:16;;;;;;;19.60;7.65;;;;;;;-2.54;77.30;102859.22;5026880;28;20075;-76
2023/03/01 01:56:48;;;;;;;22.88;7.82;;;;;;;-2.63;77.54;102857.34;5019340;28;20038;-76
2023/03/01 01:59:14;;;;;;;22.80;7.68;;;;;;;-2.68;77.97;102859.03;5012355;28;20021;-76
2023/03/01 02:01:39;;;;;;;22.80;7.88;;;;;;;-2.72;78.13;102855.47;5013335;28;20131;-76
2023/03/01 02:04:06;;;;;;;20.30;7.40;;;;;;;-2.71;78.47;102851.09;5031668;28;20017;-76
2023/03/01 02:06:37;;;;;;;20.60;8.15;;;;;;;-2.72;78.82;102846.72;5012380;28;20030;-76
2023/03/01 02:09:07;;;;;;;19.55;8.90;;;;;;;-2.74;78.66;102845.78;5034087;28;20425;-76
2023/03/01 02:11:34;;;;;;;21.67;7.13;;;;;;;-2.74;78.18;102844.03;5035221;28;20032;-75
2023/03/01 02:13:59;;;;;;;20.45;7.82;;;;;;;-2.78;78.60;102839.59;5035209;28;20029;-75
2023/03/01 02:16:26;;;;;;;20.27;7.55;;;;;;;-2.84;78.65;102835.13;5006248;28;20464;-76
2023/03/01 02:18:51;;;;;;;19.52;6.88;;;;;;;-2.88;78.69;102840.34;5017174;28;20064;-76
2023/03/01 02:21:23;;;;;;;22.75;8.38;;;;;;;-2.89;79.19;102839.44;5033277;28;20473;-76
2023/03/01 02:23:48;;;;;;;19.63;7.07;;;;;;;-2.89;79.13;102828.91;5033053;28;20432;-75
2023/03/01 02:26:37;;;;;;;19.90;6.97;;;;;;;-2.86;79.30;102828.94;5016523;28;20013;-75
2023/03/01 02:29:02;;;;;;;20.08;7.47;;;;;;;-2.86;79.36;102826.31;5016497;28;20112;-76
2023/03/01 02:31:43;;;;;;;19.70;7.38;;;;;;;-2.87;79.36;102827.19;5033822;28;20547;-76
2023/03/01 02:34:30;;;;;;;20.52;7.10;;;;;;;-2.84;78.99;102832.50;5030596;28;20473;-76
2023/03/01 02:37:01;;;;;;;21.23;8.30;;;;;;;-2.85;79.41;102824.59;5015129;28;20505;-75
2023/03/01 02:39:50;;;;;;;21.70;7.03;;;;;;;-2.87;79.63;102829.84;5028273;28;20040;-76
2023/03/01 02:42:22;;;;;;;24.80;7.63;;;;;;;-2.82;79.31;102836.03;5030285;28;20041;-75
2023/03/01 02:44:49;;;;;;;20.08;6.88;;;;;;;-2.77;79.23;102825.56;5032387;28;20320;-74
2023/03/01 02:47:15;;;;;;;19.90;7.03;;;;;;;-2.75;79.14;102833.47;5031064;28;20029;-76
2023/03/01 02:49:40;;;;;;;18.98;7.35;;;;;;;-2.77;79.09;102838.72;5033086;28;20036;-76
2023/03/01 02:52:37;;;;;;;21.17;7.70;;;;;;;-2.73;79.13;102839.66;5015587;28;20116;-76
2023/03/01 02:55:05;;;;;;;20.23;7.07;;;;;;;-2.74;79.50;102840.53;5033305;28;20021;-76
2023/03/01 02:57:33;;;;;;;19.92;7.97;;;;;;;-2.75;78.84;102841.38;5033278;28;20026;-75
2023/03/01 03:00:06;;;;;;;20.42;7.22;;;;;;;-2.72;79.04;102836.19;5034347;28;20071;-75
2023/03/01 03:02:38;;;;;;;20.67;7.03;;;;;;;-2.65;79.16;102832.75;5009608;28;20500;-76
2023/03/01 03:05:16;;;;;;;20.33;7.25;;;;;;;-2.67;78.71;102834.47;5011679;28;20033;-75
2023/03/01 03:07:44;;;;;;;20.83;6.65;;;;;;;-2.75;78.68;102833.47;5013221;28;20080;-76
2023/03/01 03:10:16;;;;;;;19.17;7.78;;;;;;;-2.82;79.07;102825.50;5026788;28;20029;-76
2023/03/01 03:12:41;;;;;;;21.05;7.97;;;;;;;-2.85;79.41;102828.09;5030716;28;20030;-76
2023/03/01 03:15:08;;;;;;;19.77;7.22;;;;;;;-2.88;79.57;102835.06;5032721;28;20037;-76
2023/03/01 03:17:38;;;;;;;19.75;7.30;;;;;;;-2.89;79.69;102833.28;5033606;28;20029;-75
2023/03/01 03:20:05;;;;;;;22.45;7.22;;;;;;;-2.90;79.60;102824.53;5032800;28;20037;-75
2023/03/01 03:22:33;;;;;;;22.92;7.60;;;;;;;-2.92;79.64;102826.22;5032080;28;20040;-75
2023/03/01 03:24:59;;;;;;;24.23;7.95;;;;;;;-2.98;79.58;102834.03;5012061;28;20389;-75
2023/03/01 03:27:24;;;;;;;18.63;6.93;;;;;;;-3.01;79.59;102832.25;5032844;28;20037;-75
2023/03/01 03:29:49;;;;;;;19.63;7.53;;;;;;;-3.02;79.94;102826.97;5033176;28;20030;-75
2023/03/01 03:32:15;;;;;;;20.55;6.85;;;;;;;-3.02;80.75;102829.59;5015159;28;20550;-76
2023/03/01 03:34:40;;;;;;;17.48;6.60;;;;;;;-3.05;80.33;102825.16;5011564;28;20037;-76
2023/03/01 03:38:01;;;;;;;20.05;6.78;;;;;;;-3.07;80.08;102826.03;5031091;28;20500;-76
2023/03/01 03:39:54;;;;;;;19.42;6.97;;;;;;;-3.09;80.47;102822.47;5032543;28;20045;-75
2023/03/01 03:42:20;;;;;;;20.17;7.13;;;;;;;-3.10;80.14;102818.09;5025964;28;20037;-75
2023/03/01 03:44:45;;;;;;;19.02;6.47;;;;;;;-3.11;80.73;102826.81;5032699;28;20032;-75
2023/03/01 03:47:10;;;;;;;18.30;6.50;;;;;;;-3.13;80.88;102825.91;5012333;28;20163;-75
2023/03/01 03:49:36;;;;;;;19.80;7.53;;;;;;;-3.12;81.07;102815.41;5032844;28;20029;-75
2023/03/01 03:52:01;;;;;;;21.98;8.07;;;;;;;-3.08;81.58;102821.63;5030554;28;20128;-75
2023/03/01 03:54:26;;;;;;;20.80;7.50;;;;;;;-3.10;81.14;102823.34;5031350;28;20033;-75
2023/03/01 03:56:51;;;;;;;22.10;6.82;;;;;;;-3.10;81.27;102824.22;5031411;28;20155;-76
2023/03/01 03:59:17;;;;;;;19.83;6.63;;;;;;;-3.10;81.34;102824.22;5032426;28;20473;-75
2023/03/01 04:01:42;;;;;;;19.38;6.90;;;;;;;-3.06;81.43;102819.88;5031840;28;20163;-76
2023/03/01 04:04:07;;;;;;;19.10;6.22;;;;;;;-2.96;81.64;102813.88;5032561;28;20033;-75
2023/03/01 04:06:33;;;;;;;20.95;6.65;;;;;;;-2.86;81.06;102802.63;5013070;28;20029;-75
2023/03/01 04:09:00;;;;;;;20.50;6.38;;;;;;;-2.76;80.59;102813.31;5031159;28;20085;-76
2023/03/01 04:11:25;;;;;;;18.70;6.28;;;;;;;-2.70;80.87;102802.84;5010689;28;20037;-75
2023/03/01 04:13:53;;;;;;;20.13;6.25;;;;;;;-2.64;80.46;102797.66;5030140;28;20036;-75
2023/03/01 04:16:19;;;;;;;18.98;6.68;;;;;;;-2.63;79.92;102797.69;5013045;28;20388;-76
2023/03/01 04:18:44;;;;;;;18.75;6.28;;;;;;;-2.64;80.12;102790.69;5031079;28;20487;-76
2023/03/01 04:21:11;;;;;;;18.88;6.93;;;;;;;-2.64;79.73;102792.41;5031625;28;20033;-76
2023/03/01 04:23:37;;;;;;;18.45;6.55;;;;;;;-2.64;80.00;102790.69;5007221;28;20358;-76
2023/03/01 04:26:02;;;;;;;17.55;5.78;;;;;;;-2.66;79.92;102786.25;5012203;28;20112;-76
2023/03/01 04:28:30;;;;;;;20.27;6.68;;;;;;;-2.68;79.99;102793.22;5031071;28;20029;-75
2023/03/01 04:30:58;;;;;;;19.13;5.72;;;;;;;-2.73;79.73;102792.28;5031477;28;20034;-75
2023/03/01 04:33:25;;;;;;;19.05;6.13;;;;;;;-2.75;79.94;102788.75;5014129;28;20037;-75
2023/03/01 04:35:51;;;;;;;18.13;5.82;;;;;;;-2.74;80.18;102786.13;5029713;28;20036;-75
2023/03/01 04:38:21;;;;;;;20.15;7.10;;;;;;;-2.72;80.53;102788.81;5012796;28;20653;-75
2023/03/01 04:40:46;;;;;;;17.08;5.88;;;;;;;-2.75;80.23;102786.09;5010575;28;20029;-76
2023/03/01 04:43:15;;;;;;;18.90;6.30;;;;;;;-2.76;80.37;102785.22;5029454;28;20113;-75
2023/03/01 04:45:41;;;;;;;21.80;7.18;;;;;;;-2.74;80.07;102785.25;5013683;28;20029;-75
2023/03/01 04:48:06;;;;;;;20.40;7.15;;;;;;;-2.71;80.17;102785.28;5029842;28;20660;-76
2023/03/01 04:50:32;;;;;;;19.30;6.72;;;;;;;-2.71;79.92;102777.41;5031237;28;20032;-76
2023/03/01 04:53:00;;;;;;;18.90;6.50;;;;;;;-2.70;80.04;102766.88;5031200;28;20489;-75
2023/03/01 04:55:27;;;;;;;18.65;7.20;;;;;;;-2.70;79.60;102763.38;5031298;28;20087;-76
2023/03/01 04:57:53;;;;;;;21.70;7.38;;;;;;;-2.70;79.02;102766.88;5026993;28;20033;-75
2023/03/01 05:00:22;;;;;;;18.30;5.93;;;;;;;-2.72;79.23;102746.69;5013297;28;20028;-75
2023/03/01 05:02:53;;;;;;;23.52;7.97;;;;;;;-2.72;79.50;102751.97;5031294;28;20378;-75
2023/03/01 05:05:39;;;;;;;20.20;5.95;;;;;;;-2.73;79.54;102764.22;5030206;28;20072;-75
2023/03/01 05:08:08;;;;;;;18.70;5.78;;;;;;;-2.81;79.92;102761.50;5005250;28;20044;-75
2023/03/01 05:10:35;;;;;;;20.50;7.13;;;;;;;-2.86;79.91;102768.44;5025549;28;20029;-75
2023/03/01 05:13:01;;;;;;;19.80;5.97;;;;;;;-2.89;80.18;102771.03;5027900;28;20025;-75
2023/03/01 05:15:29;;;;;;;19.80;6.57;;;;;;;-2.95;80.21;102773.56;5029439;28;20071;-76
2023/03/01 05:17:58;;;;;;;18.25;6.35;;;;;;;-3.04;80.53;102774.31;5007921;28;20029;-76
2023/03/01 05:20:24;;;;;;;20.57;6.70;;;;;;;-3.08;80.86;102775.13;5031346;28;20493;-75
2023/03/01 05:22:50;;;;;;;20.55;6.97;;;;;;;-3.13;81.10;102770.66;5013443;28;20057;-75
2023/03/01 05:25:16;;;;;;;17.38;6.40;;;;;;;-3.17;81.19;102757.47;5029817;28;20435;-75
2023/03/01 05:27:42;;;;;;;19.30;6.75;;;;;;;-3.19;81.24;102751.31;5029865;28;20055;-75
2023/03/01 05:30:14;;;;;;;19.75;7.32;;;;;;;-3.23;81.17;102744.25;4999038;28;20018;-75
2023/03/01 05:32:45;;;;;;;20.00;7.03;;;;;;;-3.23;81.45;102744.25;5029612;28;20492;-75
2023/03/01 05:35:15;;;;;;;19.70;6.95;;;;;;;-3.27;81.35;102737.16;5028169;28;20497;-76
2023/03/01 05:37:46;;;;;;;19.77;6.78;;;;;;;-3.29;81.24;102732.78;5027405;28;20021;-75
2023/03/01 05:40:16;;;;;;;18.27;7.30;;;;;;;-3.33;81.17;102734.47;5011346;28;20033;-76
2023/03/01 05:42:47;;;;;;;22.15;7.55;;;;;;;-3.38;81.28;102726.50;5030717;28;20493;-75
2023/03/01 05:45:14;;;;;;;22.00;6.72;;;;;;;-3.38;81.41;102723.00;5033758;28;20159;-76
2023/03/01 05:47:44;;;;;;;23.25;7.25;;;;;;;-3.39;82.08;102723.84;5030100;28;20489;-75
2023/03/01 05:50:18;;;;;;;21.75;7.47;;;;;;;-3.39;81.87;102724.72;5035384;28;20481;-75
2023/03/01 05:52:48;;;;;;;21.65;7.20;;;;;;;-3.42;81.63;102731.69;5034207;28;20044;-75
2023/03/01 05:55:15;;;;;;;;;;;;;;;-3.38;80.64;102723.00;5034925;28;20026;-75
2023/03/01 05:57:40;;;;;;;19.70;7.15;;;;;;;-3.51;81.86;102722.81;5034325;28;19920;-75
2023/03/01 06:00:07;;;;;;;20.15;7.75;;;;;;;-3.52;81.67;102728.03;5030100;28;20120;-75
2023/03/01 06:02:32;;;;;;;21.98;7.03;;;;;;;-3.57;81.89;102727.97;5014180;28;20432;-76
2023/03/01 06:04:57;;;;;;;19.75;7.10;;;;;;;-3.58;81.74;102722.69;5007833;28;20018;-75
2023/03/01 06:07:23;;;;;;;20.27;7.50;;;;;;;-3.59;82.14;102727.03;5033219;28;20051;-75
2023/03/01 06:09:48;;;;;;;20.58;6.78;;;;;;;-3.60;82.50;102732.28;5013688;28;20129;-75
2023/03/01 06:12:13;;;;;;;20.83;6.32;;;;;;;-3.60;82.74;102724.41;5000919;28;20033;-75
2023/03/01 06:14:39;;;;;;;20.90;7.65;;;;;;;-3.65;82.81;102719.06;5032218;28;20477;-76
2023/03/01 06:17:04;;;;;;;20.52;8.10;;;;;;;-3.68;82.80;102721.66;5031062;28;20032;-75
2023/03/01 06:19:29;;;;;;;22.48;7.45;;;;;;;-3.67;83.68;102726.06;5026729;28;20034;-75
2023/03/01 06:21:55;;;;;;;20.45;8.13;;;;;;;-3.71;83.16;102718.97;5013278;28;20049;-75
2023/03/01 06:24:20;;;;;;;20.88;7.75;;;;;;;-3.74;83.34;102719.81;5009612;28;20117;-75
2023/03/01 06:26:45;;;;;;;23.30;7.25;;;;;;;-3.75;83.10;102727.66;5033503;28;20416;-75
2023/03/01 06:29:11;;;;;;;19.25;7.50;;;;;;;-3.76;83.40;102729.41;5033657;28;20033;-75
2023/03/01 06:31:36;;;;;;;20.83;7.72;;;;;;;-3.79;83.23;102732.00;5013562;28;20056;-75
2023/03/01 06:34:02;;;;;;;23.88;8.02;;;;;;;-3.80;83.50;102735.47;5032128;28;20063;-75
2023/03/01 06:36:27;;;;;;;23.30;8.00;;;;;;;-3.76;83.84;102733.81;5015592;28;20104;-75
2023/03/01 06:38:52;;;;;;;20.95;7.85;;;;;;;-3.75;84.30;102731.19;5013213;28;20030;-75
2023/03/01 06:41:17;;;;;;;21.95;7.50;;;;;;;-3.74;84.21;102735.56;5015056;28;20026;-75
2023/03/01 06:43:43;;;;;;;19.83;6.55;;;;;;;-3.74;84.04;102734.69;5011398;28;20066;-75
2023/03/01 06:46:08;;;;;;;20.88;7.93;;;;;;;-3.72;84.48;102728.63;5015067;28;20036;-75
2023/03/01 06:48:34;;;;;;;26.50;9.02;;;;;;;-3.64;84.94;102730.47;5033025;28;20025;-75
2023/03/01 06:51:00;;;;;;;23.08;8.35;;;;;;;-3.58;84.50;102728.81;5033452;28;20159;-75
2023/03/01 06:53:29;;;;;;;20.30;7.22;;;;;;;-3.51;84.17;102733.31;5030634;28;20013;-75
2023/03/01 06:56:00;;;;;;;23.05;8.25;;;;;;;-3.45;84.39;102732.53;5031959;28;20027;-75
2023/03/01 06:58:25;;;;;;;27.08;8.73;;;;;;;-3.40;84.17;102733.47;5030561;28;20473;-75
2023/03/01 07:00:51;;;;;;;27.75;7.80;;;;;;;-3.36;84.78;102731.78;5011942;28;20041;-75
2023/03/01 07:03:16;;;;;;;22.13;8.80;;;;;;;-3.32;84.72;102733.59;5011608;28;20021;-75
2023/03/01 07:05:41;;;;;;;23.55;8.63;;;;;;;-3.30;84.54;102726.59;5032736;28;20469;-75
2023/03/01 07:08:07;;;;;;;20.27;8.02;;;;;;;-3.22;84.77;102732.88;5033900;28;20052;-75
2023/03/01 07:10:32;;;;;;;20.05;8.18;;;;;;;-3.13;84.85;102729.50;5030940;28;20134;-75
2023/03/01 07:12:58;;;;;;;23.23;8.07;;;;;;;-3.03;84.89;102715.59;5001636;28;20572;-76
2023/03/01 07:15:25;;;;;;;22.35;8.65;;;;;;;-2.91;84.75;102724.53;5031752;28;20544;-75
2023/03/01 07:17:51;;;;;;;20.85;8.05;;;;;;;-2.81;84.54;102722.03;5010940;28;20034;-75
2023/03/01 07:20:18;;;;;;;21.08;9.00;;;;;;;-2.73;84.41;102730.00;5031653;28;20557;-75
2023/03/01 07:22:43;;;;;;;21.35;8.07;;;;;;;-2.68;84.25;102728.31;5029721;28;20022;-76
2023/03/01 07:25:10;;;;;;;23.65;9.05;;;;;;;-2.59;84.28;102738.09;5006010;28;20026;-75
2023/03/01 07:27:36;;;;;;;23.05;8.80;;;;;;;-2.53;84.13;102743.41;5006203;28;20033;-75
2023/03/01 07:30:02;;;;;;;25.30;9.32;;;;;;;-2.47;83.47;102737.34;5025652;28;20103;-75
2023/03/01 07:32:27;;;;;;;21.13;8.52;;;;;;;-2.38;83.16;102737.44;5014001;28;20033;-75
2023/03/01 07:34:52;;;;;;;21.33;8.77;;;;;;;-2.27;82.87;102729.63;5010766;28;20087;-75
2023/03/01 07:37:18;;;;;;;20.00;6.80;;;;;;;-2.15;82.11;102731.53;5030429;28;20033;-76
2023/03/01 07:39:43;;;;;;;22.75;8.55;;;;;;;-2.05;81.37;102737.75;5031288;28;20032;-75
2023/03/01 07:42:08;;;;;;;26.08;9.43;;;;;;;-1.94;80.88;102733.47;5013553;28;20071;-75
2023/03/01 07:44:34;;;;;;;21.58;7.90;;;;;;;-1.84;80.95;102732.69;5028361;28;20405;-75
2023/03/01 07:47:00;;;;;;;22.08;7.90;;;;;;;-1.76;80.64;102732.75;5031843;28;20029;-75
2023/03/01 07:49:26;;;;;;;23.30;8.82;;;;;;;-1.67;80.54;102737.22;5021465;28;20021;-75
2023/03/01 07:51:51;;;;;;;21.40;8.70;;;;;;;-1.59;79.77;102736.41;5030569;28;20075;-77
2023/03/01 07:54:17;;;;;;;24.30;8.63;;;;;;;-1.52;80.15;102737.34;5013415;28;20033;-76
2023/03/01 07:56:43;;;;;;;22.77;8.18;;;;;;;-1.46;79.89;102732.13;5032274;28;20033;-76
2023/03/01 07:59:09;;;;;;;24.60;8.15;;;;;;;-1.39;79.41;102727.78;5014451;28;20026;-76
2023/03/01 08:01:34;;;;;;;22.85;8.57;;;;;;;-1.32;79.10;102731.31;5012125;28;20087;-77
2023/03/01 08:03:59;;;;;;;20.75;7.93;;;;;;;-1.26;79.70;102737.53;5012651;28;20025;-76
2023/03/01 08:06:25;;;;;;;22.80;8.43;;;;;;;-1.21;79.24;102734.91;5010103;28;20473;-74
2023/03/01 08:08:50;;;;;;;23.27;8.85;;;;;;;-1.14;78.34;102734.09;5010213;28;20069;-77
2023/03/01 08:11:16;;;;;;;18.52;7.00;;;;;;;-1.07;79.21;102732.34;5012974;28;20033;-77
2023/03/01 08:13:42;;;;;;;21.75;7.32;;;;;;;-1.00;78.09;102725.34;5032600;28;20045;-76
2023/03/01 08:16:11;;;;;;;26.08;8.77;;;;;;;-0.92;77.82;102731.56;5011885;28;20036;-76
2023/03/01 08:18:37;;;;;;;23.83;8.05;;;;;;;-0.87;77.27;102721.91;5030081;28;20029;-77
2023/03/01 08:21:07;;;;;;;21.20;8.38;;;;;;;-0.80;77.20;102731.63;5022562;28;20084;-77
2023/03/01 08:23:33;;;;;;;20.77;8.50;;;;;;;-0.73;76.83;102737.81;5024479;28;20509;-77
2023/03/01 08:26:16;;;;;;;23.17;8.75;;;;;;;-0.63;77.32;102730.78;5014440;28;20036;-77
2023/03/01 08:28:43;;;;;;;21.63;8.55;;;;;;;-0.57;76.55;102725.53;5030214;28;20496;-77
2023/03/01 08:31:27;;;;;;;22.85;8.73;;;;;;;-0.50;76.80;102719.38;5012315;28;20481;-77
2023/03/01 08:33:55;;;;;;;23.98;8.90;;;;;;;-0.45;75.78;102724.72;5023551;28;20071;-77
2023/03/01 08:36:26;;;;;;;21.15;9.25;;;;;;;-0.39;75.07;102725.59;5030163;28;20033;-77
2023/03/01 08:38:52;;;;;;;23.27;7.97;;;;;;;-0.34;75.87;102727.38;5012465;28;20045;-77
2023/03/01 08:41:18;;;;;;;21.83;8.23;;;;;;;-0.27;76.18;102724.75;5029717;28;20033;-77
2023/03/01 08:43:43;;;;;;;21.17;7.93;;;;;;;-0.22;75.46;102717.72;5029828;28;20029;-77
2023/03/01 08:46:09;;;;;;;22.40;8.65;;;;;;;-0.16;74.89;102716.84;5030237;28;20036;-77
2023/03/01 08:48:35;;;;;;;21.77;8.52;;;;;;;-0.08;74.67;102714.22;5030235;28;20030;-77
2023/03/01 08:51:12;;;;;;;21.48;9.43;;;;;;;-0.02;75.80;102701.84;5030165;28;20473;-77
2023/03/01 08:53:38;;;;;;;20.45;7.65;;;;;;;0.05;74.75;102704.53;5011596;28;20021;-77
2023/03/01 08:56:03;;;;;;;19.98;8.10;;;;;;;0.12;73.84;102701.00;5011750;28;20035;-77
2023/03/01 08:58:29;;;;;;;20.00;7.85;;;;;;;0.18;73.46;102698.38;5029133;28;20457;-76
2023/03/01 09:00:56;;;;;;;22.27;8.98;;;;;;;0.25;73.66;102707.16;5007535;28;20483;-79
2023/03/01 09:03:21;;;;;;;20.15;8.52;;;;;;;0.31;73.55;102708.06;5024564;28;20025;-76
2023/03/01 09:05:46;;;;;;;21.23;8.30;;;;;;;0.39;72.05;102701.88;5025747;28;20065;-76
2023/03/01 09:08:12;;;;;;;24.25;8.70;;;;;;;0.45;72.27;102702.72;5028491;28;20173;-76
2023/03/01 09:10:39;;;;;;;23.52;8.32;;;;;;;0.52;71.79;102699.19;5027255;28;20056;-76
2023/03/01 09:13:04;;;;;;;22.30;9.18;;;;;;;0.58;71.78;102693.03;5028079;28;20053;-76
2023/03/01 09:15:29;;;;;;;21.10;8.32;;;;;;;0.64;72.16;102690.34;5023338;28;20033;-77
2023/03/01 09:17:55;;;;;;;21.17;8.25;;;;;;;0.72;71.64;102686.81;5013007;28;20068;-77
2023/03/01 09:20:20;;;;;;;22.23;7.82;;;;;;;0.78;71.75;102686.81;5031954;28;20100;-77
2023/03/01 09:22:45;;;;;;;20.38;7.05;;;;;;;0.85;71.25;102676.19;5031179;28;20385;-77
2023/03/01 09:25:11;;;;;;;21.48;8.32;;;;;;;0.93;71.63;102676.16;5009832;28;20026;-74
2023/03/01 09:27:36;;;;;;;21.00;7.88;;;;;;;1.01;70.78;102677.03;5029658;28;20056;-76
2023/03/01 09:30:02;;;;;;;19.17;7.32;;;;;;;1.09;70.17;102676.13;5032152;28;20580;-76
2023/03/01 09:32:30;;;;;;;17.80;6.60;;;;;;;1.16;68.68;102675.22;5033018;28;20096;-75
2023/03/01 09:35:03;;;;;;;20.50;7.70;;;;;;;1.21;69.73;102671.63;5032650;28;20281;-75
2023/03/01 09:37:29;;;;;;;20.17;7.72;;;;;;;1.26;68.55;102658.38;5032543;28;20029;-75
2023/03/01 09:39:54;;;;;;;19.35;7.60;;;;;;;1.31;69.04;102666.31;5015847;28;20052;-74
2023/03/01 09:42:20;;;;;;;24.00;7.97;;;;;;;1.35;67.70;102666.28;5034816;28;20034;-75
2023/03/01 09:44:53;;;;;;;20.13;7.60;;;;;;;1.40;66.97;102659.16;5033037;28;20044;-76
2023/03/01 09:47:26;;;;;;;22.50;9.25;;;;;;;1.45;67.59;102653.88;5033567;28;20473;-74
2023/03/01 09:50:11;;;;;;;20.73;8.65;;;;;;;1.50;67.02;102656.47;5012712;28;20037;-75
2023/03/01 09:52:50;;;;;;;20.48;7.40;;;;;;;1.55;66.51;102659.97;5031135;28;20072;-76
2023/03/01 09:55:21;;;;;;;22.00;7.53;;;;;;;1.60;66.83;102652.88;5030932;28;20107;-75
2023/03/01 09:57:53;;;;;;;20.17;7.53;;;;;;;1.66;65.96;102651.97;5033605;28;20038;-75
2023/03/01 10:00:39;;;;;;;20.35;7.32;;;;;;;1.69;65.88;102642.19;5034461;28;20040;-75
2023/03/01 10:03:16;;;;;;;19.42;7.35;;;;;;;1.74;64.30;102647.47;5034777;28;20033;-75
2023/03/01 10:06:15;;;;;;;19.10;6.95;;;;;;;1.79;65.02;102639.47;5017280;28;20025;-75
2023/03/01 10:08:41;;;;;;;22.10;7.53;;;;;;;1.84;63.35;102632.38;5033542;28;20104;-75
2023/03/01 10:11:38;;;;;;;20.65;6.97;;;;;;;1.91;64.58;102621.69;5015218;28;20485;-75
2023/03/01 10:14:12;;;;;;;20.02;7.25;;;;;;;1.99;62.99;102624.31;5001690;28;20150;-75
2023/03/01 10:16:51;;;;;;;18.15;7.28;;;;;;;2.01;62.12;102617.19;5017042;28;20546;-75
2023/03/01 10:19:32;;;;;;;19.52;7.47;;;;;;;2.06;63.15;102618.03;5017229;28;20084;-75
2023/03/01 10:22:03;;;;;;;19.00;6.68;;;;;;;2.08;61.73;102613.59;5034810;28;20120;-75
2023/03/01 10:24:33;;;;;;;19.70;6.60;;;;;;;2.12;62.15;102613.56;5017122;28;20013;-75
2023/03/01 10:27:04;;;;;;;;;;;;;;;2.14;62.19;102606.47;5034289;28;20087;-75
2023/03/01 10:29:58;;;;;;;17.70;5.72;;;;;;;2.15;61.55;102603.78;5016158;28;19909;-75
2023/03/01 10:32:24;;;;;;;20.98;8.07;;;;;;;2.19;62.18;102602.00;5033931;28;20523;-75
2023/03/01 10:34:49;;;;;;;20.67;7.00;;;;;;;2.22;62.62;102597.53;5033541;28;20385;-75
2023/03/01 10:37:21;;;;;;;19.77;7.00;;;;;;;2.29;61.04;102592.19;5032865;28;20025;-75
2023/03/01 10:40:05;;;;;;;19.15;6.68;;;;;;;2.34;61.44;102599.19;5008556;28;20025;-75
2023/03/01 10:42:39;;;;;;;18.60;7.25;;;;;;;2.39;61.00;102599.16;5023676;28;20025;-75
2023/03/01 10:45:26;;;;;;;20.92;7.70;;;;;;;2.43;62.25;102595.53;5034200;28;20025;-75
2023/03/01 10:48:12;;;;;;;17.30;6.88;;;;;;;2.49;62.27;102598.16;5032735;28;20388;-75
2023/03/01 10:50:39;;;;;;;21.40;6.70;;;;;;;2.52;60.63;102591.91;5033280;28;20018;-75
2023/03/01 10:53:04;;;;;;;20.10;8.07;;;;;;;2.56;61.51;102591.00;5032391;28;20037;-75
2023/03/01 10:55:37;;;;;;;20.40;7.07;;;;;;;2.59;60.37;102583.88;5015313;28;20029;-75
2023/03/01 10:58:19;;;;;;;19.77;8.15;;;;;;;2.64;61.08;102591.78;5013889;28;20045;-75
2023/03/01 11:00:46;;;;;;;22.50;7.60;;;;;;;2.66;60.36;102578.50;5015700;28;20045;-75
2023/03/01 11:03:14;;;;;;;20.10;8.10;;;;;;;2.70;59.96;102578.44;5015632;28;20044;-75
2023/03/01 11:05:54;;;;;;;20.48;7.53;;;;;;;2.74;60.96;102585.47;5032666;28;20029;-75
2023/03/01 11:08:47;;;;;;;20.52;8.32;;;;;;;2.78;60.28;102579.22;5031699;28;20060;-75
2023/03/01 11:11:18;;;;;;;18.05;6.85;;;;;;;2.85;58.73;102587.09;5028416;28;20468;-75
2023/03/01 11:14:17;;;;;;;21.40;7.40;;;;;;;2.89;59.29;102581.72;5026923;28;20030;-75
2023/03/01 11:16:48;;;;;;;22.48;7.85;;;;;;;2.93;57.22;102580.78;4981353;28;20052;-75
2023/03/01 11:19:17;;;;;;;18.75;7.40;;;;;;;2.99;57.29;102585.16;5032817;28;20120;-75
2023/03/01 11:22:16;;;;;;;22.85;7.85;;;;;;;3.03;57.62;102583.31;5030149;28;20037;-76
2023/03/01 11:24:45;;;;;;;21.58;8.32;;;;;;;3.04;55.95;102580.63;5027904;28;20021;-74
2023/03/01 11:27:31;;;;;;;22.35;8.85;;;;;;;3.09;58.44;102580.56;5033812;28;20025;-74